sensor_id;sensor_type;location;lat;lon;timestamp;temperature;humidity
25628;DHT22;40915;50.826;4.356;2023-02-21T21:32:16;6.40;99.90
25628;DHT22;40915;50.826;4.356;2023-02-21T21:34:44;6.40;99.90
25628;DHT22;40915;50.826;4.356;2023-02-21T21:37:11;6.30;99.90
25628;DHT22;40915;50.826;4.356;2023-02-21T21:39:42;6.30;99.90
25628;DHT22;40915;50.826;4.356;2023-02-21T21:42:09;6.30;99.90
25628;DHT22;40915;50.826;4.356;2023-02-21T21:44:43;6.30;99.90
25628;DHT22;40915;50.826;4.356;2023-02-21T21:47:09;6.30;99.90
25628;DHT22;40915;50.826;4.356;2023-02-21T21:49:35;6.20;99.90
25628;DHT22;40915;50.826;4.356;2023-02-21T21:52:03;6.30;99.90
25628;DHT22;40915;50.826;4.356;2023-02-21T21:54:30;6.30;99.90
25628;DHT22;40915;50.826;4.356;2023-02-21T21:57:00;6.30;99.90
25628;DHT22;40915;50.826;4.356;2023-02-21T21:59:28;6.30;99.90
25628;DHT22;40915;50.826;4.356;2023-02-21T22:01:54;6.30;99.90
25628;DHT22;40915;50.826;4.356;2023-02-21T22:04:22;6.30;99.90
25628;DHT22;40915;50.826;4.356;2023-02-21T22:06:52;6.30;99.90
25628;DHT22;40915;50.826;4.356;2023-02-21T22:09:18;6.20;99.90
25628;DHT22;40915;50.826;4.356;2023-02-21T22:11:45;6.20;99.90
25628;DHT22;40915;50.826;4.356;2023-02-21T22:14:12;6.20;99.90
25628;DHT22;40915;50.826;4.356;2023-02-21T22:16:41;6.20;99.90
25628;DHT22;40915;50.826;4.356;2023-02-21T22:19:07;6.20;99.90
25628;DHT22;40915;50.826;4.356;2023-02-21T22:21:34;6.20;99.90
25628;DHT22;40915;50.826;4.356;2023-02-21T22:24:00;6.20;99.90
25628;DHT22;40915;50.826;4.356;2023-02-21T22:26:28;6.10;99.90
25628;DHT22;40915;50.826;4.356;2023-02-21T22:28:55;6.10;99.90
25628;DHT22;40915;50.826;4.356;2023-02-21T22:31:23;6.10;99.90
25628;DHT22;40915;50.826;4.356;2023-02-21T22:33:49;6.10;99.90
25628;DHT22;40915;50.826;4.356;2023-02-21T22:36:14;6.00;99.90
25628;DHT22;40915;50.826;4.356;2023-02-21T22:38:44;6.00;99.90
25628;DHT22;40915;50.826;4.356;2023-02-21T22:41:21;6.00;99.90
25628;DHT22;40915;50.826;4.356;2023-02-21T22:43:51;6.00;99.90
25628;DHT22;40915;50.826;4.356;2023-02-21T22:46:20;5.90;99.90
25628;DHT22;40915;50.826;4.356;2023-02-21T22:48:46;5.90;99.90
25628;DHT22;40915;50.826;4.356;2023-02-21T22:51:14;5.80;99.90
25628;DHT22;40915;50.826;4.356;2023-02-21T22:53:40;5.80;99.90
25628;DHT22;40915;50.826;4.356;2023-02-21T22:56:07;5.80;99.90
25628;DHT22;40915;50.826;4.356;2023-02-21T22:58:35;5.70;99.90
25628;DHT22;40915;50.826;4.356;2023-02-21T23:01:01;5.70;99.90
25628;DHT22;40915;50.826;4.356;2023-02-21T23:03:35;5.70;99.90
25628;DHT22;40915;50.826;4.356;2023-02-21T23:06:02;5.70;99.90
25628;DHT22;40915;50.826;4.356;2023-02-21T23:08:32;5.70;99.90
25628;DHT22;40915;50.826;4.356;2023-02-21T23:11:00;5.60;99.90
25628;DHT22;40915;50.826;4.356;2023-02-21T23:13:26;5.60;99.90
25628;DHT22;40915;50.826;4.356;2023-02-21T23:15:54;5.60;99.90
25628;DHT22;40915;50.826;4.356;2023-02-21T23:18:20;5.60;99.90
25628;DHT22;40915;50.826;4.356;2023-02-21T23:20:48;5.60;99.90
25628;DHT22;40915;50.826;4.356;2023-02-21T23:23:17;5.60;99.90
25628;DHT22;40915;50.826;4.356;2023-02-21T23:25:43;5.60;99.90
25628;DHT22;40915;50.826;4.356;2023-02-21T23:28:12;5.60;99.90
25628;DHT22;40915;50.826;4.356;2023-02-21T23:30:39;5.60;99.90
25628;DHT22;40915;50.826;4.356;2023-02-21T23:33:14;5.60;99.90
25628;DHT22;40915;50.826;4.356;2023-02-21T23:35:46;5.60;99.90
25628;DHT22;40915;50.826;4.356;2023-02-21T23:38:14;5.50;99.90
25628;DHT22;40915;50.826;4.356;2023-02-21T23:40:42;5.50;99.90
25628;DHT22;40915;50.826;4.356;2023-02-21T23:43:09;5.60;99.90
25628;DHT22;40915;50.826;4.356;2023-02-21T23:45:37;5.60;99.90
25628;DHT22;40915;50.826;4.356;2023-02-21T23:48:07;5.50;99.90
25628;DHT22;40915;50.826;4.356;2023-02-21T23:50:35;5.50;99.90
25628;DHT22;40915;50.826;4.356;2023-02-21T23:53:01;5.50;99.90
25628;DHT22;40915;50.826;4.356;2023-02-21T23:55:27;5.50;99.90
25628;DHT22;40915;50.826;4.356;2023-02-21T23:57:57;5.40;99.90
